Terminal Aerodrome Forecast
Issued by NWS

Home | Current Version | Previous Version | Text Only | Print | Product List | Glossary On
Versions: 1 2 3 4 5 6 7 8 9 10 11 12 13 14
000
FTUS45 KRIW 260538
TAFRKS
TAF
KRKS 260538Z 2606/2706 24008KT P6SM VCSH BKN035
     FM261000 26014KT P6SM SCT060
     FM261900 26014G22KT P6SM VCSH SCT025 BKN040
     FM262100 25016G24KT 6SM -SHRA SCT016 OVC035
     FM270200 26013KT 4SM -SHSN BKN016=

USA.gov is the U.S. government's official web portal to all federal, state and local government web resources and services.